Time;durP1;ratioP1;P1;durP2;ratioP2;P2;SDS_P1;SDS_P2;PMS_P1;PMS_P2;Temp;Humidity;BMP_temperature;BMP_pressure;BME280_temperature;BME280_humidity;BME280_pressure;Samples;Min_cycle;Max_cycle;Signal;HPM_P1;HPM_P2
2024/04/16 00:06:30;;;;;;;21.42;3.08;;;;;;;;;;22325637;26;20004;-45
2024/04/16 00:16:32;;;;;;;21.98;4.40;;;;;;;;;;22349488;26;20015;-45
2024/04/16 00:26:34;;;;;;;20.23;5.28;;;;;;;;;;22359661;26;20027;-44
2024/04/16 00:36:36;;;;;;;27.40;5.30;;;;;;;;;;22345684;26;20076;-45
2024/04/16 00:46:37;;;;;;;25.60;5.72;;;;;;;;;;22362868;26;20326;-45
2024/04/16 00:56:40;;;;;;;23.65;5.55;;;;;;;;;;22367512;26;20081;-44
2024/04/16 01:06:41;;;;;;;26.35;6.43;;;;;;;;;;22340945;26;20000;-46
2024/04/16 01:16:44;;;;;;;18.73;4.85;;;;;;;;;;22354696;26;20415;-45
2024/04/16 01:26:47;;;;;;;17.92;4.05;;;;;;;;;;22358334;26;20007;-45
2024/04/16 01:36:50;;;;;;;14.93;3.85;;;;;;;;;;22361479;26;20414;-47
2024/04/16 01:46:51;;;;;;;15.13;4.07;;;;;;;;;;22354279;26;20012;-44
2024/04/16 01:56:53;;;;;;;12.55;3.33;;;;;;;;;;22333479;26;20003;-46
2024/04/16 02:06:54;;;;;;;5.63;1.80;;;;;;;;;;22370279;26;19996;-45
2024/04/16 02:16:57;;;;;;;11.57;2.30;;;;;;;;;;22349292;26;20101;-45
2024/04/16 02:27:32;;;;;;;16.13;2.75;;;;;;;;;;22350582;26;20037;-45
2024/04/16 02:37:34;;;;;;;6.40;2.13;;;;;;;;;;22342268;26;20000;-46
2024/04/16 02:47:35;;;;;;;16.08;2.80;;;;;;;;;;22334278;26;20501;-45
2024/04/16 02:57:36;;;;;;;25.90;6.00;;;;;;;;;;22338222;26;20000;-45
2024/04/16 03:07:38;;;;;;;19.40;5.45;;;;;;;;;;22362735;26;20089;-47
2024/04/16 03:17:40;;;;;;;13.68;4.82;;;;;;;;;;22368719;26;20070;-46
2024/04/16 03:27:42;;;;;;;15.60;4.05;;;;;;;;;;22359454;26;20003;-46
2024/04/16 03:37:47;;;;;;;17.42;4.28;;;;;;;;;;22352975;26;20019;-45
2024/04/16 03:47:48;;;;;;;23.87;4.47;;;;;;;;;;22364821;26;20015;-45
2024/04/16 03:57:50;;;;;;;22.73;4.35;;;;;;;;;;22368472;26;20332;-44
2024/04/16 04:07:51;;;;;;;19.30;5.05;;;;;;;;;;22370074;26;20096;-45
2024/04/16 04:17:53;;;;;;;19.65;5.38;;;;;;;;;;22378470;26;20420;-45
2024/04/16 04:27:54;;;;;;;26.63;5.18;;;;;;;;;;22343274;26;20003;-45
2024/04/16 04:37:56;;;;;;;29.15;5.25;;;;;;;;;;22359846;26;20075;-42
2024/04/16 04:47:57;;;;;;;17.02;5.07;;;;;;;;;;22333357;26;20015;-43
2024/04/16 04:58:00;;;;;;;24.80;4.75;;;;;;;;;;22334929;26;20018;-44
2024/04/16 05:08:02;;;;;;;19.58;4.07;;;;;;;;;;22347405;26;20048;-44
2024/04/16 05:18:03;;;;;;;19.08;3.92;;;;;;;;;;22390683;26;20014;-44
2024/04/16 05:28:05;;;;;;;21.80;4.22;;;;;;;;;;22346353;26;20022;-44
2024/04/16 05:38:07;;;;;;;16.00;4.85;;;;;;;;;;22380776;26;20435;-44
2024/04/16 05:48:09;;;;;;;23.65;4.65;;;;;;;;;;22408046;26;20004;-44
2024/04/16 05:58:11;;;;;;;17.90;5.63;;;;;;;;;;22413754;26;20015;-44
2024/04/16 06:08:12;;;;;;;26.48;6.05;;;;;;;;;;22414051;26;20036;-44
2024/04/16 06:18:14;;;;;;;14.65;5.85;;;;;;;;;;22411766;26;20076;-44
2024/04/16 06:28:15;;;;;;;19.63;4.18;;;;;;;;;;22389439;26;20442;-43
2024/04/16 06:38:19;;;;;;;25.98;6.55;;;;;;;;;;22300418;26;20016;-43
2024/04/16 06:48:20;;;;;;;26.27;6.03;;;;;;;;;;22351167;26;20015;-44
2024/04/16 06:58:23;;;;;;;31.80;5.07;;;;;;;;;;22410230;26;20015;-44
2024/04/16 07:08:26;;;;;;;24.10;4.80;;;;;;;;;;22383027;26;20026;-44
2024/04/16 07:18:27;;;;;;;19.38;5.43;;;;;;;;;;22381684;26;20016;-45
2024/04/16 07:28:33;;;;;;;23.05;5.35;;;;;;;;;;22371070;26;20022;-45
2024/04/16 07:38:36;;;;;;;17.40;4.20;;;;;;;;;;22291789;26;20077;-45
2024/04/16 07:48:38;;;;;;;7.55;2.80;;;;;;;;;;22281210;26;20095;-46
2024/04/16 07:58:39;;;;;;;6.50;2.05;;;;;;;;;;22378066;26;20004;-45
2024/04/16 08:08:41;;;;;;;9.07;1.50;;;;;;;;;;22316767;26;20099;-46
2024/04/16 08:18:43;;;;;;;8.45;1.48;;;;;;;;;;22400609;26;20014;-45
2024/04/16 08:29:23;;;;;;;6.32;1.60;;;;;;;;;;22391793;26;20011;-44
2024/04/16 08:39:25;;;;;;;6.38;1.88;;;;;;;;;;22300566;26;20055;-44
2024/04/16 08:49:31;;;;;;;8.25;1.60;;;;;;;;;;22403767;26;20442;-46
2024/04/16 08:59:33;;;;;;;9.73;1.75;;;;;;;;;;22402269;26;20506;-45
2024/04/16 09:09:35;;;;;;;7.10;2.50;;;;;;;;;;22401845;26;20347;-45
2024/04/16 09:19:38;;;;;;;7.68;1.65;;;;;;;;;;22416493;26;20008;-45
2024/04/16 09:29:41;;;;;;;10.13;1.60;;;;;;;;;;22349333;26;20006;-51
2024/04/16 09:39:43;;;;;;;7.03;1.30;;;;;;;;;;22375784;26;20479;-46
2024/04/16 09:49:46;;;;;;;3.33;1.17;;;;;;;;;;22383169;26;20439;-49
2024/04/16 09:59:48;;;;;;;4.18;1.38;;;;;;;;;;22354922;26;20007;-49
2024/04/16 10:09:49;;;;;;;9.60;1.35;;;;;;;;;;22374959;26;20052;-49
2024/04/16 10:19:51;;;;;;;7.00;2.47;;;;;;;;;;22409892;26;20011;-50
2024/04/16 10:30:15;;;;;;;7.93;1.60;;;;;;;;;;22410878;26;20080;-50
2024/04/16 10:40:27;;;;;;;6.60;1.85;;;;;;;;;;22409251;26;20374;-48
2024/04/16 10:50:29;;;;;;;7.53;1.60;;;;;;;;;;22410396;26;20022;-48
2024/04/16 11:11:25;;;;;;;5.93;1.27;;;;;;;;;;22398206;26;20335;-47
2024/04/16 11:21:32;;;;;;;9.05;3.33;;;;;;;;;;22405115;26;20342;-48
2024/04/16 11:31:34;;;;;;;13.68;2.25;;;;;;;;;;22367264;26;20004;-49
2024/04/16 11:41:36;;;;;;;8.18;1.50;;;;;;;;;;22395405;26;20011;-52
2024/04/16 12:13:24;;;;;;;9.02;1.30;;;;;;;;;;22262231;26;20334;-51
2024/04/16 12:23:25;;;;;;;6.63;1.13;;;;;;;;;;22359404;26;20026;-50
2024/04/16 12:33:28;;;;;;;7.45;1.15;;;;;;;;;;22372666;26;20003;-51
2024/04/16 12:43:31;;;;;;;8.13;1.00;;;;;;;;;;22289704;26;20018;-50
2024/04/16 13:04:30;;;;;;;5.10;1.33;;;;;;;;;;22395689;26;20430;-48
2024/04/16 13:14:33;;;;;;;7.03;1.30;;;;;;;;;;22414778;26;20088;-49
2024/04/16 13:24:34;;;;;;;3.85;0.80;;;;;;;;;;22410461;26;20022;-48
2024/04/16 13:34:36;;;;;;;4.70;1.00;;;;;;;;;;22326048;26;20074;-47
2024/04/16 13:44:39;;;;;;;9.40;1.33;;;;;;;;;;22393807;26;20417;-48
2024/04/16 13:54:42;;;;;;;5.10;0.68;;;;;;;;;;22407142;26;20012;-48
2024/04/16 14:04:44;;;;;;;2.80;0.60;;;;;;;;;;22316026;26;20388;-49
2024/04/16 14:14:46;;;;;;;4.47;1.55;;;;;;;;;;22289384;26;20385;-50
2024/04/16 14:24:49;;;;;;;2.47;0.67;;;;;;;;;;22401786;26;20043;-50
2024/04/16 14:34:50;;;;;;;5.80;0.73;;;;;;;;;;22399798;26;20029;-49
2024/04/16 14:44:52;;;;;;;3.38;1.60;;;;;;;;;;22357027;26;20000;-50
2024/04/16 14:54:54;;;;;;;7.93;0.80;;;;;;;;;;22360188;26;20077;-50
2024/04/16 15:04:56;;;;;;;4.38;0.43;;;;;;;;;;22396767;26;19999;-49
2024/04/16 15:14:58;;;;;;;2.38;0.10;;;;;;;;;;22408578;26;20031;-49
2024/04/16 15:24:59;;;;;;;1.88;0.50;;;;;;;;;;22407357;26;20003;-49
2024/04/16 15:35:01;;;;;;;2.03;0.20;;;;;;;;;;22352887;26;20004;-48
2024/04/16 15:45:04;;;;;;;2.10;0.20;;;;;;;;;;22402395;26;20003;-51
2024/04/16 15:55:06;;;;;;;;;;;;;;;;;;22408290;26;20003;-51
2024/04/16 16:05:09;;;;;;;2.08;0.20;;;;;;;;;;22406723;26;19937;-51
2024/04/16 16:15:11;;;;;;;1.92;0.20;;;;;;;;;;22398112;26;20368;-51
2024/04/16 16:25:12;;;;;;;1.90;0.20;;;;;;;;;;22387088;26;20047;-51
2024/04/16 16:35:14;;;;;;;4.50;0.40;;;;;;;;;;22365343;26;20003;-50
2024/04/16 16:45:16;;;;;;;2.22;0.20;;;;;;;;;;22371515;26;20018;-50
2024/04/16 16:55:17;;;;;;;2.03;0.28;;;;;;;;;;22402997;26;20022;-51
2024/04/16 17:05:19;;;;;;;3.15;0.28;;;;;;;;;;22399737;26;20004;-53
2024/04/16 17:15:22;;;;;;;2.05;0.20;;;;;;;;;;22400807;26;19999;-52
2024/04/16 17:25:24;;;;;;;5.57;0.50;;;;;;;;;;22328134;26;20003;-52
2024/04/16 17:35:26;;;;;;;3.40;0.50;;;;;;;;;;22367193;26;20349;-53
2024/04/16 17:45:27;;;;;;;5.93;0.70;;;;;;;;;;22412062;26;20436;-53
2024/04/16 17:55:29;;;;;;;7.72;0.73;;;;;;;;;;22414620;26;20014;-54
2024/04/16 18:16:19;;;;;;;2.20;0.40;;;;;;;;;;22368250;26;20039;-54
2024/04/16 18:37:32;;;;;;;1.45;0.50;;;;;;;;;;22338598;26;20000;-50
2024/04/16 18:47:35;;;;;;;1.67;0.40;;;;;;;;;;22337158;26;20068;-49
2024/04/16 18:57:37;;;;;;;1.92;0.45;;;;;;;;;;22349048;26;19999;-49
2024/04/16 19:07:38;;;;;;;3.58;0.65;;;;;;;;;;22350901;26;20001;-49
2024/04/16 19:17:40;;;;;;;5.00;0.98;;;;;;;;;;22358043;26;20036;-49
2024/04/16 19:27:45;;;;;;;2.60;0.52;;;;;;;;;;22365067;26;20011;-49
2024/04/16 19:37:49;;;;;;;2.17;0.70;;;;;;;;;;22355626;26;20387;-49
2024/04/16 19:48:19;;;;;;;1.85;0.82;;;;;;;;;;22358580;26;20026;-49
2024/04/16 19:58:20;;;;;;;6.93;1.05;;;;;;;;;;22347950;26;19999;-49
2024/04/16 20:08:22;;;;;;;2.33;0.77;;;;;;;;;;22338228;26;20008;-45
2024/04/16 20:18:25;;;;;;;4.10;0.50;;;;;;;;;;22343795;26;20031;-45
2024/04/16 20:28:27;;;;;;;3.17;0.60;;;;;;;;;;22325761;26;20000;-45
2024/04/16 20:38:31;;;;;;;2.13;0.50;;;;;;;;;;22335869;26;20000;-46
2024/04/16 20:48:33;;;;;;;1.77;0.55;;;;;;;;;;22376615;26;20459;-46
2024/04/16 20:58:34;;;;;;;3.10;0.63;;;;;;;;;;22339415;26;20019;-47
2024/04/16 21:08:37;;;;;;;2.20;0.88;;;;;;;;;;22349372;26;20022;-45
2024/04/16 21:18:39;;;;;;;5.90;0.63;;;;;;;;;;22368694;26;20014;-45
2024/04/16 21:28:40;;;;;;;1.98;0.30;;;;;;;;;;22375291;26;20003;-43
2024/04/16 21:38:42;;;;;;;3.22;0.70;;;;;;;;;;22379700;26;20004;-44
2024/04/16 21:48:43;;;;;;;1.98;0.30;;;;;;;;;;22346988;26;20012;-45
2024/04/16 21:58:45;;;;;;;2.92;0.63;;;;;;;;;;22349122;26;20001;-43
2024/04/16 22:09:18;;;;;;;3.42;0.55;;;;;;;;;;22356918;26;20005;-44
2024/04/16 22:19:20;;;;;;;0.70;0.20;;;;;;;;;;22360609;26;20115;-45
2024/04/16 22:29:21;;;;;;;2.45;0.50;;;;;;;;;;22342225;26;20334;-44
2024/04/16 22:39:23;;;;;;;3.17;0.50;;;;;;;;;;22331542;26;20008;-44
2024/04/16 22:49:24;;;;;;;2.58;0.30;;;;;;;;;;22349809;26;20003;-43
2024/04/16 22:59:26;;;;;;;1.10;0.40;;;;;;;;;;22360019;26;20026;-44
2024/04/16 23:09:27;;;;;;;1.20;0.35;;;;;;;;;;22365298;26;20442;-44
2024/04/16 23:19:29;;;;;;;2.33;0.85;;;;;;;;;;22379260;26;20790;-45
2024/04/16 23:29:30;;;;;;;2.13;0.38;;;;;;;;;;22406788;26;20019;-44
2024/04/16 23:39:32;;;;;;;1.92;0.30;;;;;;;;;;22289772;26;20519;-44
2024/04/16 23:49:34;;;;;;;1.20;0.35;;;;;;;;;;22403307;26;20026;-44
2024/04/16 23:59:35;;;;;;;3.42;0.52;;;;;;;;;;22405872;26;20004;-44
